Terminal Aerodrome Forecast
Issued by NWS

Home | Current Version | Previous Version | Text Only | Print | Product List | Glossary On
Versions: 1 2 3 4 5 6 7 8 9 10 11 12 13 14 15 16 17 18
000
FTUS43 KMPX 220448 AAB
TAFRNH
TAF AMD
KRNH 220448Z 2205/2224 07009KT P6SM VCSH SCT025 OVC040
     FM220800 VRB03KT 4SM BR SCT050
     FM221000 VRB03KT 1/2SM FG BKN003
     FM221400 VRB04KT 4SM BR BKN008
     FM221600 28006KT P6SM SCT012 BKN020=

USA.gov is the U.S. government's official web portal to all federal, state and local government web resources and services.